Abbot Village, Maine
Current Conditions -  °F | °C
As of 3:53 AM on Thursday 27 Nov 2014 (Local Time) from KBGR Reporting Station
Light Snow Light Snow  
Wind Chill: 13°   Ceiling: 1200
Heat Index: 28°   Visibility: 0.75mi
Dew Point: 26°   Wind: 28mph
Humidity: 92%   Direction: 360°N
Pressure: 29.7"   Gusts: 40mph
Location:  45.19°N, 69.45°W
Report Text: KBGR 270853Z 36024G35KT 3/4SM R15/P6000FT -SN BR VV012 M02/M03 A2970 RMK AO2 PK WND 01035/0853 SLP059 P0002 60006 T10221033 55019 $
Loading
Personal Weather Stations






























Interactive Weather Map New forecast layout! Learn more

10-Day Weather Forecast

Advertisements
Track Severe Weather on mobile